Time;durP1;ratioP1;P1;durP2;ratioP2;P2;SDS_P1;SDS_P2;PMS_P1;PMS_P2;Temp;Humidity;BMP_temperature;BMP_pressure;BME280_temperature;BME280_humidity;BME280_pressure;Samples;Min_cycle;Max_cycle;Signal;HPM_P1;HPM_P2
2022/05/05 00:02:21;;;;;;;3.97;2.15;;;;;;;8.08;86.17;100959.72;6274674;22;20819;-72
2022/05/05 00:04:46;;;;;;;5.68;2.08;;;;;;;8.04;86.06;100963.97;6278707;22;20034;-74
2022/05/05 00:07:14;;;;;;;2.65;1.95;;;;;;;7.93;85.67;100946.59;6229660;22;20069;-73
2022/05/05 00:09:42;;;;;;;2.72;1.90;;;;;;;7.96;86.12;100953.47;6253729;22;20083;-73
2022/05/05 00:14:56;;;;;;;2.72;1.70;;;;;;;7.96;86.04;100967.91;6257608;22;20049;-73
2022/05/05 00:17:25;;;;;;;3.72;2.33;;;;;;;7.85;85.83;100955.91;6279409;22;20029;-72
2022/05/05 00:19:51;;;;;;;2.78;1.90;;;;;;;7.93;86.65;100967.53;6276524;22;20022;-73
2022/05/05 00:22:17;;;;;;;5.03;2.00;;;;;;;7.90;86.67;100971.56;6280665;22;20004;-72
2022/05/05 00:24:42;;;;;;;4.32;2.20;;;;;;;7.91;86.79;100980.56;6222553;22;20023;-73
2022/05/05 00:27:08;;;;;;;2.05;1.77;;;;;;;7.92;86.98;100982.22;6277765;22;19996;-72
2022/05/05 00:29:34;;;;;;;3.85;2.60;;;;;;;7.94;86.46;100980.09;6227535;22;20007;-74
2022/05/05 00:31:59;;;;;;;4.10;1.98;;;;;;;7.96;86.91;100980.69;6275101;22;20659;-75
2022/05/05 00:34:25;;;;;;;4.68;2.28;;;;;;;7.90;87.04;100976.16;6253187;22;20003;-75
2022/05/05 00:36:50;;;;;;;3.15;1.90;;;;;;;7.91;86.78;100975.94;6276441;22;20077;-76
2022/05/05 00:39:16;;;;;;;3.47;1.73;;;;;;;7.93;87.36;100986.59;6254327;22;20015;-75
2022/05/05 00:41:46;;;;;;;2.40;2.15;;;;;;;7.88;86.71;100983.75;6253965;22;20015;-75
2022/05/05 00:44:13;;;;;;;3.28;1.90;;;;;;;7.86;86.65;100979.34;6278272;22;20007;-76
2022/05/05 00:46:39;;;;;;;3.90;1.80;;;;;;;7.88;86.91;100983.75;6255603;22;20049;-75
2022/05/05 00:49:05;;;;;;;2.53;1.90;;;;;;;7.82;87.03;100977.34;6280521;22;20000;-74
2022/05/05 00:51:31;;;;;;;4.78;1.67;;;;;;;7.83;87.41;100981.72;6284561;22;20007;-76
2022/05/05 00:54:21;;;;;;;3.60;2.00;;;;;;;7.79;87.61;100977.81;6252277;22;20003;-76
2022/05/05 00:56:47;;;;;;;2.25;1.83;;;;;;;7.73;87.24;100979.56;6238126;22;20008;-76
2022/05/05 00:59:13;;;;;;;3.70;1.80;;;;;;;7.82;87.26;100982.78;6254468;22;20019;-77
2022/05/05 01:01:39;;;;;;;3.97;2.47;;;;;;;7.80;88.07;100976.75;6227719;22;20025;-76
2022/05/05 01:04:07;;;;;;;7.22;2.45;;;;;;;7.92;88.26;100983.03;6253187;22;20023;-75
2022/05/05 01:06:36;;;;;;;3.83;2.40;;;;;;;7.88;87.71;100967.41;6227742;22;20091;-76
2022/05/05 01:09:05;;;;;;;4.07;2.88;;;;;;;7.98;87.96;100986.72;6250315;22;20007;-75
2022/05/05 01:11:34;;;;;;;3.53;2.83;;;;;;;7.93;88.50;100967.53;6250195;22;20011;-77
2022/05/05 01:14:02;;;;;;;4.95;2.90;;;;;;;7.92;88.31;100971.31;6252466;22;20003;-76
2022/05/05 01:16:29;;;;;;;5.10;3.00;;;;;;;8.01;89.25;100987.06;6249772;22;20053;-76
2022/05/05 01:18:55;;;;;;;6.45;3.35;;;;;;;8.12;88.84;100990.88;6253814;22;20010;-77
2022/05/05 01:21:23;;;;;;;6.53;3.75;;;;;;;7.96;89.57;100969.81;6252782;22;20008;-76
2022/05/05 01:23:51;;;;;;;8.35;2.95;;;;;;;7.88;89.34;100951.88;6282892;22;20008;-76
2022/05/05 01:29:02;;;;;;;4.82;2.90;;;;;;;8.04;88.89;100991.22;6281192;22;20017;-76
2022/05/05 01:31:27;;;;;;;6.63;3.20;;;;;;;7.88;89.16;100975.56;6279456;22;20003;-76
2022/05/05 01:34:03;;;;;;;;;;;;;;;;;;;;;
2022/05/05 01:36:31;;;;;;;7.10;2.83;;;;;;;7.77;89.70;100978.06;6281102;22;20015;-77
2022/05/05 01:38:56;;;;;;;3.65;2.50;;;;;;;7.68;89.33;100974.00;6207729;22;20008;-77
2022/05/05 01:41:30;;;;;;;6.45;2.55;;;;;;;7.56;89.02;100970.41;6254463;22;19987;-77
2022/05/05 01:43:56;;;;;;;4.60;2.97;;;;;;;7.74;89.34;101000.31;6252523;22;20011;-76
2022/05/05 01:46:21;;;;;;;6.30;2.88;;;;;;;7.67;89.58;100994.94;6256468;22;20004;-77
2022/05/05 01:48:47;;;;;;;5.50;2.95;;;;;;;7.66;89.58;101000.63;6253963;22;20497;-78
2022/05/05 01:51:14;;;;;;;8.25;2.78;;;;;;;7.58;89.41;100992.78;6227527;22;19992;-77
2022/05/05 01:53:43;;;;;;;7.00;3.17;;;;;;;7.61;89.83;101008.69;6279825;22;20420;-77
2022/05/05 01:56:16;;;;;;;2.88;2.35;;;;;;;7.48;89.53;100991.47;6280228;22;20004;-78
2022/05/05 01:58:44;;;;;;;3.28;2.60;;;;;;;7.48;89.49;101010.50;6256091;22;20027;-78
2022/05/05 02:01:12;;;;;;;6.18;2.67;;;;;;;7.33;89.66;100977.47;6253320;22;20000;-77
2022/05/05 02:03:40;;;;;;;4.90;3.00;;;;;;;7.46;89.88;101001.75;6252038;22;20080;-79
2022/05/05 02:06:07;;;;;;;6.82;3.30;;;;;;;7.46;90.27;101000.91;6253063;22;20034;-77
2022/05/05 02:08:32;;;;;;;6.13;3.15;;;;;;;7.39;90.23;100984.69;6281699;22;20007;-77
2022/05/05 02:11:00;;;;;;;4.80;3.50;;;;;;;7.25;90.26;100956.00;6250648;22;20004;-78
2022/05/05 02:13:26;;;;;;;4.55;2.90;;;;;;;7.40;89.80;100985.50;6229131;22;19992;-77
2022/05/05 02:15:57;;;;;;;3.75;2.53;;;;;;;7.31;90.32;100979.56;6252231;22;20012;-78
2022/05/05 02:18:32;;;;;;;;;;;;;;;;;;;;;
2022/05/05 02:20:58;;;;;;;2.30;2.10;;;;;;;7.28;90.56;100982.75;6281126;22;20043;-77
2022/05/05 02:23:25;;;;;;;2.28;1.90;;;;;;;7.29;90.03;100984.41;6226053;22;20421;-76
2022/05/05 02:25:52;;;;;;;2.40;1.63;;;;;;;7.24;89.90;100987.84;6252174;22;19992;-77
2022/05/05 02:28:18;;;;;;;2.45;1.85;;;;;;;7.16;90.44;100983.53;6227758;22;20011;-77
2022/05/05 02:30:45;;;;;;;6.45;2.53;;;;;;;7.22;90.69;101005.44;6255833;22;20019;-78
2022/05/05 02:33:11;;;;;;;2.22;1.80;;;;;;;7.11;90.09;100983.41;6230602;22;20014;-78
2022/05/05 02:35:42;;;;;;;3.70;2.15;;;;;;;7.10;90.42;100991.78;6254708;22;20067;-78
2022/05/05 02:40:53;;;;;;;10.63;2.85;;;;;;;7.11;90.00;100999.72;6281295;22;20014;-78
2022/05/05 02:43:20;;;;;;;3.95;2.40;;;;;;;6.93;90.13;100980.69;6228685;22;20024;-77
2022/05/05 02:46:03;;;;;;;2.72;1.90;;;;;;;6.99;90.38;101006.97;6228044;22;20099;-76
2022/05/05 02:48:36;;;;;;;2.33;1.52;;;;;;;6.82;89.83;100991.28;6203846;22;20058;-77
2022/05/05 02:51:04;;;;;;;3.10;1.70;;;;;;;6.80;89.80;100998.84;6231854;22;20051;-76
2022/05/05 02:56:16;;;;;;;2.67;2.13;;;;;;;6.62;90.10;100996.09;6234586;22;20083;-77
2022/05/05 02:58:42;;;;;;;3.00;1.90;;;;;;;6.64;89.51;101011.13;6253915;22;20432;-76
2022/05/05 03:01:12;;;;;;;4.90;2.20;;;;;;;6.61;89.44;101019.75;6254872;22;20004;-77
2022/05/05 03:03:50;;;;;;;;;;;;;;;;;;;;;
2022/05/05 03:06:35;;;;;;;;;;;;;;;;;;;;;
2022/05/05 03:09:01;;;;;;;4.05;2.60;;;;;;;6.33;89.75;101012.06;6235225;22;20035;-77
2022/05/05 03:11:26;;;;;;;4.80;2.80;;;;;;;6.28;90.67;101011.91;6255289;22;20181;-77
2022/05/05 03:13:52;;;;;;;6.05;3.15;;;;;;;6.34;90.81;101030.03;6202844;22;20082;-77
2022/05/05 03:16:19;;;;;;;4.20;2.95;;;;;;;6.33;89.85;101036.50;6279808;22;20318;-76
2022/05/05 03:18:45;;;;;;;4.25;2.45;;;;;;;6.25;90.09;101034.91;6255322;22;20004;-77
2022/05/05 03:21:10;;;;;;;3.65;2.65;;;;;;;6.20;90.11;101042.88;6279798;22;20000;-75
2022/05/05 03:23:45;;;;;;;2.58;1.83;;;;;;;6.05;90.74;101020.69;6253324;22;20008;-76
2022/05/05 03:26:13;;;;;;;4.30;2.85;;;;;;;5.98;91.04;101012.56;6256242;22;20011;-76
2022/05/05 03:28:48;;;;;;;6.60;3.72;;;;;;;5.93;90.26;101013.22;6253988;22;20046;-76
2022/05/05 03:31:21;;;;;;;5.55;3.70;;;;;;;6.01;90.27;101017.56;6250844;22;20032;-76
2022/05/05 03:33:49;;;;;;;5.82;3.50;;;;;;;6.06;90.29;101015.03;6280005;22;20011;-76
2022/05/05 03:36:25;;;;;;;;;;;;;;;;;;;;;
2022/05/05 03:38:52;;;;;;;3.25;2.80;;;;;;;6.15;90.27;101022.88;6253067;22;20028;-73
2022/05/05 03:41:27;;;;;;;3.00;2.58;;;;;;;6.22;91.41;101039.94;6276082;22;20402;-74
2022/05/05 03:43:53;;;;;;;2.50;1.88;;;;;;;6.07;90.94;101019.38;6279142;22;20063;-74
2022/05/05 03:46:19;;;;;;;3.08;2.10;;;;;;;6.11;91.41;101025.22;6251405;22;20015;-73
2022/05/05 03:48:47;;;;;;;2.92;1.83;;;;;;;6.20;90.76;101042.06;6278935;22;20015;-74
2022/05/05 03:51:12;;;;;;;4.50;2.40;;;;;;;5.90;91.13;101010.13;6226308;22;20018;-75
2022/05/05 03:53:45;;;;;;;4.78;3.00;;;;;;;6.02;90.31;101035.50;6283227;22;20007;-76
2022/05/05 03:56:13;;;;;;;5.57;3.58;;;;;;;5.93;90.97;101025.97;6282325;22;20030;-76
2022/05/05 03:58:39;;;;;;;4.65;3.30;;;;;;;6.10;91.32;101048.84;6255876;22;20003;-76
2022/05/05 04:01:09;;;;;;;3.95;3.53;;;;;;;6.04;90.95;101043.44;6255031;22;20003;-76
2022/05/05 04:03:41;;;;;;;3.15;2.30;;;;;;;5.90;91.10;101038.09;6227590;22;20065;-75
2022/05/05 04:06:07;;;;;;;3.10;2.40;;;;;;;6.06;90.49;101058.47;6253957;22;20628;-76
2022/05/05 04:08:42;;;;;;;2.70;2.17;;;;;;;6.02;91.25;101051.00;6281607;22;20003;-76
2022/05/05 04:11:12;;;;;;;;;;;;;;;5.98;91.26;101056.00;6230094;22;20449;-76
2022/05/05 04:13:40;;;;;;;2.20;1.67;;;;;;;5.83;90.39;101036.47;6280754;22;19917;-76
2022/05/05 04:16:06;;;;;;;3.65;1.90;;;;;;;5.90;91.05;101042.69;6281749;22;20027;-76
2022/05/05 04:18:35;;;;;;;3.00;1.90;;;;;;;5.91;90.33;101055.19;6256405;22;20422;-75
2022/05/05 04:21:01;;;;;;;2.17;1.80;;;;;;;5.83;91.12;101042.72;6253772;22;20010;-77
2022/05/05 04:23:26;;;;;;;3.75;1.98;;;;;;;5.80;90.98;101043.16;6255162;22;20094;-76
2022/05/05 04:25:52;;;;;;;2.47;1.98;;;;;;;5.80;91.06;101042.31;6254997;22;20018;-77
2022/05/05 04:28:18;;;;;;;2.08;1.67;;;;;;;5.74;90.11;101050.31;6282846;22;20414;-76
2022/05/05 04:30:47;;;;;;;2.55;1.83;;;;;;;5.89;91.08;101068.16;6255758;22;20000;-75
2022/05/05 04:33:13;;;;;;;2.22;1.90;;;;;;;5.77;90.74;101062.59;6254072;22;20003;-76
2022/05/05 04:35:41;;;;;;;3.92;2.30;;;;;;;5.84;90.99;101071.53;6282409;22;20000;-78
2022/05/05 04:38:08;;;;;;;2.45;1.95;;;;;;;5.72;90.17;101052.41;6282265;22;20141;-76
2022/05/05 04:40:44;;;;;;;3.55;2.03;;;;;;;5.80;90.64;101067.59;6254843;22;19983;-77
2022/05/05 04:43:18;;;;;;;2.88;2.17;;;;;;;5.90;90.67;101092.38;6257344;22;20058;-77
2022/05/05 04:46:03;;;;;;;2.47;1.75;;;;;;;5.64;90.06;101049.94;6256200;22;19996;-77
2022/05/05 04:48:39;;;;;;;1.85;1.63;;;;;;;5.70;90.32;101049.06;6280988;22;20063;-78
2022/05/05 04:51:12;;;;;;;2.80;1.90;;;;;;;5.92;90.25;101067.72;6250976;22;20726;-77
2022/05/05 04:53:45;;;;;;;4.00;2.75;;;;;;;6.27;90.03;101084.41;6253926;22;20007;-76
2022/05/05 04:56:18;;;;;;;4.60;2.70;;;;;;;6.51;89.85;101086.50;6230331;22;20061;-79
2022/05/05 04:58:48;;;;;;;4.38;3.25;;;;;;;6.82;89.43;101089.13;6232016;22;20006;-77
2022/05/05 05:01:16;;;;;;;4.35;2.92;;;;;;;7.15;89.13;101108.88;6251694;22;19988;-77
2022/05/05 05:03:51;;;;;;;;;;;;;;;;;;;;;
2022/05/05 05:06:27;;;;;;;3.75;2.90;;;;;;;7.08;86.85;101086.34;6270558;22;20054;-75
2022/05/05 05:08:53;;;;;;;3.20;2.22;;;;;;;7.15;87.09;101087.09;6278286;22;20004;-74
2022/05/05 05:11:28;;;;;;;3.75;2.55;;;;;;;7.35;86.11;101103.19;6252078;22;20022;-76
2022/05/05 05:13:53;;;;;;;3.85;2.45;;;;;;;7.46;86.42;101112.47;6252656;22;20000;-75
2022/05/05 05:16:23;;;;;;;3.42;2.17;;;;;;;7.50;85.82;101106.38;6280120;22;20000;-75
2022/05/05 05:18:53;;;;;;;2.65;2.33;;;;;;;7.59;85.48;101106.88;6254416;22;20090;-75
2022/05/05 05:21:25;;;;;;;5.38;3.90;;;;;;;7.61;85.34;101117.56;6249221;22;20057;-76
2022/05/05 05:23:53;;;;;;;4.95;3.47;;;;;;;7.47;85.48;101112.25;6251991;22;20338;-76
2022/05/05 05:26:21;;;;;;;3.75;2.65;;;;;;;7.31;85.78;101110.16;6228875;22;20069;-74
2022/05/05 05:28:47;;;;;;;3.45;3.05;;;;;;;7.25;85.58;101119.22;6252834;22;20062;-76
2022/05/05 05:31:16;;;;;;;3.40;2.75;;;;;;;7.21;86.27;101123.47;6278779;22;20066;-75
2022/05/05 05:33:42;;;;;;;5.18;3.38;;;;;;;7.27;86.84;101144.31;6256581;22;20397;-77
2022/05/05 05:36:08;;;;;;;4.15;3.10;;;;;;;7.29;86.29;101142.22;6254279;22;20011;-76
2022/05/05 05:38:51;;;;;;;6.32;3.85;;;;;;;7.10;85.55;101101.41;6252953;22;20414;-78
2022/05/05 05:41:27;;;;;;;5.43;3.92;;;;;;;7.42;86.02;101150.22;6250762;22;20022;-77
2022/05/05 05:43:55;;;;;;;3.75;2.85;;;;;;;7.33;85.44;101118.94;6280079;22;20014;-77
2022/05/05 05:46:21;;;;;;;3.72;2.55;;;;;;;7.63;85.75;101134.47;6253465;22;20004;-76
2022/05/05 05:48:53;;;;;;;2.65;1.98;;;;;;;7.72;85.16;101129.53;6228640;22;20022;-79
2022/05/05 05:51:19;;;;;;;3.92;2.20;;;;;;;7.90;84.05;101136.84;6277288;22;20007;-77
2022/05/05 05:53:44;;;;;;;3.25;2.33;;;;;;;8.14;84.08;101149.47;6228152;22;20011;-77
2022/05/05 05:56:17;;;;;;;4.97;2.75;;;;;;;8.26;84.06;101156.88;6225610;22;20023;-76
2022/05/05 05:58:56;;;;;;;5.50;3.00;;;;;;;8.31;83.87;101165.16;6231505;22;20014;-75
2022/05/05 06:03:53;;;;;;;4.75;3.13;;;;;;;8.34;83.51;101162.00;6231346;22;20327;-76
2022/05/05 06:04:09;;;;;;;6.07;3.35;;;;;;;8.52;82.70;101153.75;6281866;22;20023;-76
2022/05/05 06:06:35;;;;;;;4.90;3.15;;;;;;;8.79;82.75;101160.66;6230921;22;20069;-77
2022/05/05 06:09:00;;;;;;;4.78;3.40;;;;;;;9.12;81.66;101154.59;6227801;22;20071;-77
2022/05/05 06:11:29;;;;;;;4.68;3.00;;;;;;;9.46;81.47;101186.72;6277450;22;20078;-77
2022/05/05 06:13:54;;;;;;;3.42;2.83;;;;;;;9.54;80.25;101173.53;6202579;22;20011;-73
2022/05/05 06:16:27;;;;;;;3.58;2.67;;;;;;;9.75;79.93;101163.03;6225398;22;20011;-73
2022/05/05 06:18:52;;;;;;;3.90;2.45;;;;;;;10.09;79.95;101182.25;6252486;22;20007;-74
2022/05/05 06:21:18;;;;;;;7.93;3.10;;;;;;;10.30;79.34;101178.84;6200545;22;20468;-74
2022/05/05 06:23:44;;;;;;;5.43;3.28;;;;;;;10.52;78.90;101178.16;6275672;22;20033;-76
2022/05/05 06:26:09;;;;;;;5.72;3.38;;;;;;;10.61;78.16;101171.19;6250654;22;20007;-74
2022/05/05 06:28:35;;;;;;;4.22;3.28;;;;;;;10.93;77.56;101192.50;6224940;22;20334;-73
2022/05/05 06:31:00;;;;;;;7.95;3.97;;;;;;;11.14;76.55;101196.41;6226428;22;20334;-72
2022/05/05 06:33:28;;;;;;;7.05;3.38;;;;;;;11.12;75.10;101186.78;6226975;22;20062;-73
2022/05/05 06:35:53;;;;;;;4.38;3.08;;;;;;;11.15;75.24;101181.59;6249336;22;20011;-75
2022/05/05 06:38:19;;;;;;;6.25;3.05;;;;;;;11.32;75.20;101187.06;6252940;22;20004;-74
2022/05/05 06:40:44;;;;;;;3.30;3.00;;;;;;;11.57;74.99;101199.44;6252698;22;20007;-75
2022/05/05 06:43:10;;;;;;;6.78;2.53;;;;;;;11.75;74.75;101201.03;6228350;22;20110;-75
2022/05/05 06:45:35;;;;;;;3.05;2.28;;;;;;;12.04;73.78;101198.13;6252980;22;20015;-75
2022/05/05 06:48:04;;;;;;;5.10;2.97;;;;;;;12.07;73.54;101196.78;6255478;22;20431;-77
2022/05/05 06:50:30;;;;;;;3.70;2.67;;;;;;;11.81;73.20;101190.97;6279864;22;20003;-73
2022/05/05 06:52:59;;;;;;;4.05;2.67;;;;;;;11.67;73.93;101213.28;6251859;22;20010;-75
2022/05/05 06:58:16;;;;;;;5.57;2.92;;;;;;;11.43;74.19;101214.59;6264056;22;20307;-75
2022/05/05 07:03:28;;;;;;;3.77;2.40;;;;;;;11.94;73.88;101207.06;6276066;22;20026;-76
2022/05/05 07:05:54;;;;;;;4.55;2.22;;;;;;;12.45;72.43;101204.03;6250641;22;20015;-72
2022/05/05 07:10:52;;;;;;;6.05;2.97;;;;;;;12.80;71.61;101216.41;6277122;22;20019;-74
2022/05/05 07:11:15;;;;;;;4.07;3.13;;;;;;;12.86;70.66;101236.50;6234718;22;20014;-73
2022/05/05 07:13:40;;;;;;;4.90;3.13;;;;;;;12.85;69.86;101237.59;6245998;22;19999;-77
2022/05/05 07:16:08;;;;;;;6.22;3.03;;;;;;;12.90;69.76;101243.13;6241100;22;20010;-73
2022/05/05 07:18:34;;;;;;;6.43;2.92;;;;;;;13.07;69.60;101237.50;6250627;22;20011;-78
2022/05/05 07:20:59;;;;;;;5.70;2.28;;;;;;;13.08;68.48;101212.53;6249152;22;20092;-74
2022/05/05 07:23:25;;;;;;;4.60;2.60;;;;;;;13.52;68.30;101241.69;6251136;22;20625;-74
2022/05/05 07:25:50;;;;;;;3.88;2.63;;;;;;;13.83;67.32;101241.00;6240810;22;20090;-73
2022/05/05 07:28:16;;;;;;;7.85;2.83;;;;;;;14.00;65.86;101241.63;6238312;22;20027;-73
2022/05/05 07:30:41;;;;;;;6.57;2.45;;;;;;;14.13;65.63;101238.41;6240980;22;19991;-74
2022/05/05 07:33:13;;;;;;;4.80;2.15;;;;;;;14.55;64.62;101232.97;6239719;22;20004;-73
2022/05/05 07:35:40;;;;;;;3.83;2.17;;;;;;;15.24;63.41;101250.09;6241191;22;20000;-74
2022/05/05 07:38:06;;;;;;;4.55;2.75;;;;;;;15.70;61.51;101264.59;6265667;22;20003;-78
2022/05/05 07:40:34;;;;;;;2.88;2.55;;;;;;;15.90;60.23;101256.56;6271391;22;20011;-74
2022/05/05 07:43:07;;;;;;;6.55;2.45;;;;;;;16.06;59.90;101247.13;6252202;22;20018;-74
2022/05/05 07:45:50;;;;;;;3.97;1.88;;;;;;;16.74;59.06;101276.00;6276490;22;20046;-73
2022/05/05 07:48:26;;;;;;;;;;;;;;;;;;;;;
2022/05/05 07:51:00;;;;;;;3.05;1.90;;;;;;;16.83;56.38;101240.31;6276040;22;20067;-75
2022/05/05 07:54:34;;;;;;;4.15;2.67;;;;;;;16.96;56.10;101258.19;6241624;22;20007;-73
2022/05/05 07:56:36;;;;;;;5.82;2.63;;;;;;;16.84;55.63;101280.63;6281416;22;20433;-73
2022/05/05 07:59:04;;;;;;;5.38;2.65;;;;;;;16.63;56.29;101246.81;6253205;22;19999;-74
2022/05/05 08:01:32;;;;;;;6.15;3.10;;;;;;;16.78;55.34;101266.03;6252944;22;19992;-74
2022/05/05 08:03:58;;;;;;;2.45;1.92;;;;;;;16.98;56.25;101247.66;6229335;22;20042;-75
2022/05/05 08:06:33;;;;;;;6.13;2.58;;;;;;;17.38;55.09;101267.78;6279991;22;20075;-73
2022/05/05 08:08:58;;;;;;;3.90;2.08;;;;;;;17.78;54.77;101276.75;6279072;22;20000;-74
2022/05/05 08:11:24;;;;;;;3.72;2.20;;;;;;;18.42;53.22;101262.69;6251919;22;20051;-73
2022/05/05 08:13:53;;;;;;;4.25;2.45;;;;;;;18.49;51.74;101269.47;6253668;22;20010;-74
2022/05/05 08:16:29;;;;;;;3.45;2.38;;;;;;;18.41;51.12;101272.09;6279951;22;20000;-75
2022/05/05 08:18:54;;;;;;;4.60;2.22;;;;;;;18.46;51.33;101280.34;6281725;22;20021;-74
2022/05/05 08:21:22;;;;;;;2.80;2.25;;;;;;;18.55;51.72;101261.94;6227359;22;20427;-74
2022/05/05 08:23:48;;;;;;;5.85;2.40;;;;;;;18.69;51.05;101267.56;6228355;22;20015;-74
2022/05/05 08:28:57;;;;;;;4.70;2.28;;;;;;;17.73;52.53;101258.25;6256052;22;20493;-73
2022/05/05 08:31:23;;;;;;;4.10;2.53;;;;;;;17.32;54.07;101271.69;6201589;22;20004;-74
2022/05/05 08:33:49;;;;;;;5.97;2.90;;;;;;;16.77;55.05;101258.84;6253605;22;20027;-75
2022/05/05 08:36:14;;;;;;;4.88;2.20;;;;;;;16.52;56.66;101259.84;6227033;22;20033;-74
2022/05/05 08:38:44;;;;;;;4.53;2.22;;;;;;;16.62;56.88;101278.28;6226477;22;20018;-75
2022/05/05 08:41:12;;;;;;;5.55;2.20;;;;;;;16.33;57.15;101265.22;6279635;22;20393;-74
2022/05/05 08:43:37;;;;;;;3.47;2.08;;;;;;;16.27;57.25;101267.19;6277136;22;20050;-74
2022/05/05 08:46:08;;;;;;;2.95;2.05;;;;;;;16.19;56.54;101254.81;6254094;22;20007;-74
2022/05/05 08:48:35;;;;;;;5.25;1.95;;;;;;;16.25;55.76;101261.09;6278606;22;20003;-73
2022/05/05 08:51:06;;;;;;;7.88;1.95;;;;;;;16.16;55.75;101249.81;6252412;22;20030;-74
2022/05/05 08:53:35;;;;;;;2.92;1.60;;;;;;;16.18;55.18;101264.19;6228921;22;20008;-74
2022/05/05 08:56:02;;;;;;;2.40;1.15;;;;;;;16.45;55.57;101268.44;6253274;22;20042;-73
2022/05/05 08:58:31;;;;;;;2.00;1.10;;;;;;;16.84;54.93;101261.31;6252355;22;20625;-75
2022/05/05 09:01:00;;;;;;;4.28;1.40;;;;;;;17.13;53.93;101277.09;6279598;22;20003;-74
2022/05/05 09:03:27;;;;;;;1.98;1.23;;;;;;;17.28;53.88;101252.91;6277424;22;20460;-74
2022/05/05 09:05:55;;;;;;;3.15;1.58;;;;;;;17.81;52.84;101281.69;6227944;22;20008;-73
2022/05/05 09:08:24;;;;;;;2.10;1.15;;;;;;;17.71;52.86;101276.25;6253111;22;20007;-74
2022/05/05 09:10:51;;;;;;;3.17;1.33;;;;;;;17.90;52.53;101279.13;6252617;22;20004;-73
2022/05/05 09:13:24;;;;;;;5.53;1.70;;;;;;;17.89;52.04;101286.56;6280022;22;19998;-73
2022/05/05 09:15:53;;;;;;;5.70;1.20;;;;;;;17.76;51.59;101262.38;6279046;22;20377;-74
2022/05/05 09:18:30;;;;;;;2.33;1.20;;;;;;;18.03;52.09;101266.53;6253158;22;20416;-73
2022/05/05 09:21:00;;;;;;;3.17;1.20;;;;;;;18.46;51.02;101283.94;6249885;22;20051;-73
2022/05/05 09:23:34;;;;;;;3.83;1.60;;;;;;;18.64;50.33;101287.81;6278915;22;20486;-73
2022/05/05 09:26:05;;;;;;;2.25;1.60;;;;;;;18.57;49.70;101279.06;6251120;22;20012;-73
2022/05/05 09:28:35;;;;;;;2.53;1.40;;;;;;;18.78;49.88;101284.31;6278952;22;20357;-75
2022/05/05 09:31:26;;;;;;;3.70;1.80;;;;;;;19.33;48.84;101284.53;6250644;22;20006;-74
2022/05/05 09:33:52;;;;;;;2.38;1.27;;;;;;;19.92;48.85;101292.34;6252619;22;20072;-73
2022/05/05 09:36:29;;;;;;;1.92;1.15;;;;;;;20.51;47.65;101274.97;6227800;22;20012;-73
2022/05/05 09:39:12;;;;;;;3.22;1.80;;;;;;;21.03;43.92;101289.34;6279295;22;20007;-73
2022/05/05 09:41:49;;;;;;;2.97;1.33;;;;;;;21.40;43.48;101284.50;6278528;22;20050;-73
2022/05/05 09:44:18;;;;;;;3.53;1.23;;;;;;;21.99;43.30;101283.50;6250939;22;20057;-73
2022/05/05 09:46:43;;;;;;;3.83;1.50;;;;;;;22.61;42.13;101281.66;6252437;22;20022;-74
2022/05/05 09:49:16;;;;;;;3.30;1.40;;;;;;;22.81;41.10;101300.50;6276825;22;20031;-73
2022/05/05 09:57:39;;;;;;;5.30;2.13;;;;;;;22.59;39.60;101278.34;6252192;22;20007;-75
2022/05/05 09:57:51;;;;;;;4.88;1.48;;;;;;;22.39;41.13;101275.06;6279056;22;20025;-73
2022/05/05 10:05:59;;;;;;;6.97;1.55;;;;;;;22.55;38.77;101285.75;6276775;22;20460;-73
2022/05/05 10:08:39;;;;;;;6.25;1.88;;;;;;;23.29;37.91;101269.94;6248990;22;20059;-72
2022/05/05 10:12:28;;;;;;;;;;;;;;;;;;;;;
2022/05/05 10:19:06;;;;;;;8.45;1.88;;;;;;;23.70;37.07;101288.06;6010748;23;20008;-74
2022/05/05 10:26:19;;;;;;;3.03;1.77;;;;;;;25.81;32.87;101288.00;6023613;23;20022;-74
2022/05/05 10:28:48;;;;;;;1.17;0.80;;;;;;;26.60;33.38;101273.66;5985622;23;20355;-74
2022/05/05 10:31:34;;;;;;;2.75;1.08;;;;;;;28.41;30.89;101282.03;6009063;23;20020;-74
2022/05/05 10:42:15;;;;;;;2.53;1.08;;;;;;;28.91;28.37;101268.22;5885033;24;20377;-74
2022/05/05 10:45:23;;;;;;;9.77;4.13;;;;;;;26.88;31.37;101289.72;5933564;24;20005;-74
2022/05/05 10:51:27;;;;;;;5.68;3.45;;;;;;;29.27;30.32;101252.03;6077958;23;20010;-74
2022/05/05 10:54:25;;;;;;;6.63;4.07;;;;;;;30.07;27.18;101288.81;6131008;23;20013;-73
2022/05/05 11:21:41;;;;;;;3.22;1.90;;;;;;;39.36;16.65;101294.16;6137113;23;20081;-75
2022/05/05 11:28:50;;;;;;;2.72;1.63;;;;;;;39.09;17.40;101263.69;6023387;23;20015;-74
2022/05/05 11:36:10;;;;;;;;;;;;;;;;;;;;;
2022/05/05 11:50:15;;;;;;;;;;;;;;;;;;;;;
2022/05/05 12:06:44;;;;;;;5.90;1.63;;;;;;;41.80;14.45;101257.53;5970484;24;20172;-73
2022/05/05 12:23:10;;;;;;;3.10;1.20;;;;;;;43.78;11.85;101236.63;5983958;24;20015;-76
2022/05/05 12:26:14;;;;;;;1.85;1.52;;;;;;;44.22;11.73;101251.53;6025171;23;20039;-76
2022/05/05 12:29:20;;;;;;;2.30;1.27;;;;;;;42.04;12.51;101211.13;6122172;23;19993;-75
2022/05/05 13:34:36;;;;;;;3.35;1.20;;;;;;;48.85;7.14;101224.53;6011970;22;4948149;-72
2022/05/05 13:37:04;;;;;;;4.22;1.45;;;;;;;45.55;8.53;101217.50;6224905;23;20008;-72
2022/05/05 13:39:32;;;;;;;2.90;1.00;;;;;;;44.18;9.69;101224.94;6173947;23;20008;-70
2022/05/05 13:42:08;;;;;;;1.25;0.85;;;;;;;45.01;9.80;101225.97;6194410;23;20028;-72
2022/05/05 13:44:44;;;;;;;4.95;1.25;;;;;;;45.60;9.53;101213.94;6152049;23;20014;-73
2022/05/05 13:47:30;;;;;;;3.13;1.30;;;;;;;45.38;9.86;101225.78;6172115;23;20012;-76
2022/05/05 13:50:03;;;;;;;3.25;1.38;;;;;;;44.35;9.17;101222.56;6199052;23;20009;-75
2022/05/05 13:52:42;;;;;;;5.55;1.00;;;;;;;43.73;9.79;101212.94;6172473;23;20335;-73
2022/05/05 13:55:25;;;;;;;;;;;;;;;;;;;;;
2022/05/05 14:01:23;;;;;;;3.30;1.08;;;;;;;42.43;10.56;101194.50;6113438;23;20054;-74
2022/05/05 14:03:50;;;;;;;3.65;1.13;;;;;;;40.89;11.77;101223.63;6166360;23;20007;-73
2022/05/05 14:06:15;;;;;;;1.27;0.70;;;;;;;37.65;13.60;101201.75;6215828;23;20020;-73
2022/05/05 14:14:13;;;;;;;1.63;0.57;;;;;;;33.35;17.23;101197.34;6219273;23;20039;-72
2022/05/05 14:16:44;;;;;;;1.17;0.55;;;;;;;34.41;16.36;101197.56;6166782;23;20088;-73
2022/05/05 14:19:10;;;;;;;1.10;0.60;;;;;;;33.76;16.96;101202.63;6191981;23;20485;-73
2022/05/05 14:21:36;;;;;;;1.55;0.90;;;;;;;32.25;18.33;101197.47;6217383;23;20028;-73
2022/05/05 14:24:01;;;;;;;1.98;0.80;;;;;;;31.22;19.54;101198.31;6167406;23;20032;-73
2022/05/05 14:26:27;;;;;;;1.60;0.80;;;;;;;32.50;18.88;101180.56;6162779;23;20008;-72
2022/05/05 14:28:52;;;;;;;3.70;1.10;;;;;;;33.26;18.15;101213.97;6193096;23;20423;-73
2022/05/05 14:31:20;;;;;;;1.45;0.80;;;;;;;32.60;18.57;101195.19;6218133;23;20001;-73
2022/05/05 14:33:46;;;;;;;3.35;1.20;;;;;;;31.49;20.07;101179.97;6218818;23;20420;-73
2022/05/05 14:36:16;;;;;;;2.70;1.30;;;;;;;30.36;21.84;101187.69;6189333;23;20004;-73
2022/05/05 14:38:42;;;;;;;2.50;1.33;;;;;;;29.31;24.05;101181.72;6191378;23;20009;-73
2022/05/05 14:41:09;;;;;;;7.20;1.58;;;;;;;29.82;23.68;101180.47;6189586;23;20011;-76
2022/05/05 14:43:42;;;;;;;3.75;1.05;;;;;;;30.05;24.18;101195.34;6165118;23;20008;-75
2022/05/05 14:46:08;;;;;;;3.60;1.60;;;;;;;31.99;22.11;101195.69;6217467;23;20007;-73
2022/05/05 14:48:33;;;;;;;3.42;1.85;;;;;;;33.70;19.53;101195.72;6189739;23;20400;-75
2022/05/05 14:50:59;;;;;;;4.72;1.73;;;;;;;33.05;20.53;101202.19;6165861;23;20083;-75
2022/05/05 14:53:24;;;;;;;4.43;1.65;;;;;;;32.96;20.87;101190.44;6215058;23;20756;-73
2022/05/05 14:55:53;;;;;;;2.97;1.70;;;;;;;32.83;20.94;101187.19;6216344;23;20005;-76
2022/05/05 14:58:18;;;;;;;3.30;1.35;;;;;;;32.65;20.57;101186.28;6191202;23;20024;-78
2022/05/05 15:00:44;;;;;;;3.40;1.10;;;;;;;32.39;21.30;101205.22;6216604;23;20028;-74
2022/05/05 15:03:17;;;;;;;2.88;1.23;;;;;;;33.04;21.15;101180.72;6217185;23;20363;-73
2022/05/05 15:05:42;;;;;;;3.67;1.52;;;;;;;33.02;20.76;101205.00;6189124;23;20103;-73
2022/05/05 15:08:08;;;;;;;2.97;1.50;;;;;;;33.42;20.32;101193.72;6217711;23;20011;-74
2022/05/05 15:10:43;;;;;;;7.50;1.30;;;;;;;33.65;20.01;101179.94;6189816;23;20215;-77
2022/05/05 15:13:09;;;;;;;2.65;1.15;;;;;;;34.55;19.64;101201.56;6217563;23;19996;-73